Time;durP1;ratioP1;P1;durP2;ratioP2;P2;SDS_P1;SDS_P2;PMS_P1;PMS_P2;Temp;Humidity;BMP_temperature;BMP_pressure;BME280_temperature;BME280_humidity;BME280_pressure;Samples;Min_cycle;Max_cycle;Signal;HPM_P1;HPM_P2
2023/07/09 00:00:50;;;;;;;5.05;2.33;;;17.40;99.90;;;;;;5019011;28;20029;-94
2023/07/09 00:03:17;;;;;;;4.65;2.38;;;17.40;99.90;;;;;;5019956;28;20081;-95
2023/07/09 00:05:45;;;;;;;5.18;2.08;;;17.40;99.90;;;;;;5019316;28;20017;-94
2023/07/09 00:08:20;;;;;;;5.00;2.58;;;17.50;99.90;;;;;;5016216;28;20021;-95
2023/07/09 00:10:45;;;;;;;5.03;2.45;;;17.50;99.90;;;;;;5019181;28;20046;-93
2023/07/09 00:13:11;;;;;;;2.97;2.15;;;17.50;99.90;;;;;;5019883;28;20021;-94
2023/07/09 00:15:37;;;;;;;3.20;2.33;;;17.50;99.90;;;;;;5019754;28;20022;-93
2023/07/09 00:18:03;;;;;;;4.15;2.30;;;17.50;99.90;;;;;;5025891;28;20030;-93
2023/07/09 00:20:28;;;;;;;4.95;2.13;;;17.50;99.90;;;;;;5028599;28;20039;-95
2023/07/09 00:22:54;;;;;;;6.20;2.28;;;17.50;99.90;;;;;;5028400;28;20022;-94
2023/07/09 00:25:20;;;;;;;3.20;2.00;;;17.50;99.90;;;;;;5028454;28;20026;-94
2023/07/09 00:27:49;;;;;;;7.13;2.28;;;17.50;99.90;;;;;;5029269;28;20033;-93
2023/07/09 00:30:24;;;;;;;3.83;2.10;;;17.50;99.90;;;;;;5028148;28;20041;-93
2023/07/09 00:32:52;;;;;;;3.03;2.28;;;17.50;99.90;;;;;;5018494;28;20030;-93
2023/07/09 00:35:18;;;;;;;4.00;2.47;;;17.40;99.90;;;;;;5017910;28;20025;-94
2023/07/09 00:37:45;;;;;;;3.20;2.47;;;17.50;99.90;;;;;;5018101;28;20033;-93
2023/07/09 00:40:22;;;;;;;5.38;2.28;;;17.50;99.90;;;;;;5012523;28;20021;-93
2023/07/09 00:42:52;;;;;;;5.45;2.70;;;17.50;99.90;;;;;;5017941;28;20033;-93
2023/07/09 00:45:24;;;;;;;5.53;3.15;;;17.40;99.90;;;;;;5017767;28;20132;-93
2023/07/09 00:47:55;;;;;;;5.70;2.38;;;17.40;99.90;;;;;;5017674;28;20033;-92
2023/07/09 00:50:31;;;;;;;8.75;2.78;;;17.40;99.90;;;;;;5016435;28;20033;-94
2023/07/09 00:53:05;;;;;;;5.97;2.78;;;17.40;99.90;;;;;;5015978;28;20068;-93
2023/07/09 00:55:37;;;;;;;5.25;2.80;;;17.30;99.90;;;;;;5015013;28;20022;-93
2023/07/09 00:58:06;;;;;;;6.28;2.22;;;17.30;99.90;;;;;;5017489;28;20018;-93
2023/07/09 01:00:46;;;;;;;4.35;2.63;;;17.30;99.90;;;;;;5017495;28;20025;-93
2023/07/09 01:03:34;;;;;;;8.40;3.10;;;17.30;99.90;;;;;;5018917;28;20119;-94
2023/07/09 01:06:01;;;;;;;3.47;2.50;;;17.30;99.90;;;;;;5032441;28;20124;-93
2023/07/09 01:08:31;;;;;;;9.70;3.10;;;17.20;99.90;;;;;;5022439;28;20021;-93
2023/07/09 01:11:01;;;;;;;4.40;3.10;;;17.20;99.90;;;;;;5028659;28;20030;-93
2023/07/09 01:13:28;;;;;;;5.07;3.45;;;17.20;99.90;;;;;;5028299;28;20072;-93
2023/07/09 01:15:55;;;;;;;6.60;3.50;;;17.20;99.90;;;;;;5042186;28;20053;-94
2023/07/09 01:18:21;;;;;;;5.95;3.45;;;17.10;99.90;;;;;;5023736;28;20022;-94
2023/07/09 01:20:47;;;;;;;5.55;3.17;;;17.10;99.90;;;;;;5019423;28;20013;-93
2023/07/09 01:23:13;;;;;;;5.75;3.88;;;17.00;99.90;;;;;;5018857;28;20083;-91
2023/07/09 01:25:52;;;;;;;6.78;4.18;;;17.10;99.90;;;;;;5018450;28;20121;-94
2023/07/09 01:28:20;;;;;;;7.97;3.90;;;17.00;99.90;;;;;;5015575;28;20034;-93
2023/07/09 01:30:46;;;;;;;6.15;3.70;;;17.00;99.90;;;;;;5017494;28;20089;-92
2023/07/09 01:33:11;;;;;;;6.28;3.50;;;17.00;99.90;;;;;;5014990;28;20052;-93
2023/07/09 01:35:41;;;;;;;8.15;3.70;;;17.00;99.90;;;;;;5017395;28;20025;-93
2023/07/09 01:38:07;;;;;;;7.05;3.85;;;17.00;99.90;;;;;;5017231;28;20033;-93
2023/07/09 01:40:33;;;;;;;7.70;3.90;;;17.00;99.90;;;;;;5016967;28;20071;-93
2023/07/09 01:42:59;;;;;;;5.63;3.70;;;17.00;99.90;;;;;;5034044;28;20406;-93
2023/07/09 01:45:26;;;;;;;7.78;3.63;;;17.00;99.90;;;;;;5017384;28;20018;-94
2023/07/09 01:47:53;;;;;;;7.13;4.30;;;16.90;99.90;;;;;;5031917;28;20021;-93
2023/07/09 01:50:19;;;;;;;7.80;3.95;;;16.90;99.90;;;;;;5034745;28;20040;-91
2023/07/09 01:52:46;;;;;;;9.18;4.25;;;16.80;99.90;;;;;;5034147;28;20010;-92
2023/07/09 01:55:16;;;;;;;8.18;4.07;;;16.80;99.90;;;;;;5013639;28;20021;-94
2023/07/09 01:57:42;;;;;;;6.70;4.45;;;16.70;99.90;;;;;;5016443;28;20551;-94
2023/07/09 02:00:13;;;;;;;12.43;5.13;;;16.80;99.90;;;;;;5033694;28;20118;-94
2023/07/09 02:02:42;;;;;;;20.67;4.57;;;16.80;99.90;;;;;;5033531;28;20043;-93
2023/07/09 02:05:09;;;;;;;9.52;4.57;;;16.80;99.90;;;;;;5015396;28;20073;-93
2023/07/09 02:07:35;;;;;;;7.80;4.28;;;16.70;99.90;;;;;;5016144;28;20025;-95
2023/07/09 02:10:02;;;;;;;8.90;4.82;;;16.80;99.90;;;;;;5016550;28;20029;-94
2023/07/09 02:12:27;;;;;;;8.82;4.70;;;16.70;99.90;;;;;;5033439;28;20040;-94
2023/07/09 02:14:53;;;;;;;10.82;4.93;;;16.70;99.90;;;;;;5033846;28;20021;-92
2023/07/09 02:17:19;;;;;;;10.95;4.90;;;16.70;99.90;;;;;;5016214;28;20033;-93
2023/07/09 02:19:44;;;;;;;6.25;4.93;;;16.70;99.90;;;;;;5016006;28;20080;-94
2023/07/09 02:22:11;;;;;;;10.35;4.90;;;16.60;99.90;;;;;;5015477;28;20447;-93
2023/07/09 02:24:37;;;;;;;12.45;6.85;;;16.60;99.90;;;;;;5016837;28;20022;-94
2023/07/09 02:27:05;;;;;;;12.38;6.53;;;16.60;99.90;;;;;;5017113;28;20179;-94
2023/07/09 02:29:31;;;;;;;13.55;6.10;;;16.60;99.90;;;;;;5015647;28;20017;-94
2023/07/09 02:31:58;;;;;;;14.15;5.43;;;16.60;99.90;;;;;;5015934;28;20045;-93
2023/07/09 02:34:29;;;;;;;10.77;5.95;;;16.50;99.90;;;;;;5016231;28;20021;-93
2023/07/09 02:36:57;;;;;;;12.15;6.13;;;16.50;99.90;;;;;;5014809;28;20018;-94
2023/07/09 02:39:24;;;;;;;11.40;6.38;;;16.50;99.90;;;;;;5021035;28;20105;-92
2023/07/09 02:41:50;;;;;;;12.02;6.28;;;16.50;99.90;;;;;;5021193;28;20025;-93
2023/07/09 02:44:17;;;;;;;11.45;6.82;;;16.50;99.90;;;;;;5019129;28;20047;-92
2023/07/09 02:46:43;;;;;;;13.27;5.72;;;16.50;99.90;;;;;;5019475;28;20017;-92
2023/07/09 02:49:11;;;;;;;14.82;6.60;;;16.40;99.90;;;;;;5015809;28;20068;-93
2023/07/09 02:51:37;;;;;;;14.00;6.80;;;16.40;99.90;;;;;;5014066;28;20025;-93
2023/07/09 02:54:04;;;;;;;14.40;7.10;;;16.40;99.90;;;;;;5015185;28;20021;-94
2023/07/09 02:56:30;;;;;;;14.27;7.45;;;16.40;99.90;;;;;;5015532;28;20017;-93
2023/07/09 02:58:56;;;;;;;15.88;8.73;;;16.30;99.90;;;;;;5015588;28;20045;-94
2023/07/09 03:01:24;;;;;;;16.45;8.23;;;16.30;99.90;;;;;;5015757;28;20053;-93
2023/07/09 03:03:54;;;;;;;13.25;6.13;;;16.20;99.90;;;;;;5015106;28;20069;-94
2023/07/09 03:06:21;;;;;;;21.90;11.40;;;16.20;99.90;;;;;;5015151;28;20032;-94
2023/07/09 03:08:47;;;;;;;26.55;11.98;;;16.20;99.90;;;;;;5015381;28;20268;-93
2023/07/09 03:11:15;;;;;;;21.52;11.13;;;16.10;99.90;;;;;;5015321;28;20066;-93
2023/07/09 03:13:41;;;;;;;26.38;12.95;;;16.10;99.90;;;;;;5015315;28;20025;-94
2023/07/09 03:16:06;;;;;;;31.88;13.38;;;16.10;99.90;;;;;;5018189;28;20063;-94
2023/07/09 03:18:32;;;;;;;26.27;12.27;;;16.10;99.90;;;;;;5016822;28;20079;-93
2023/07/09 03:20:58;;;;;;;30.02;13.55;;;16.10;99.90;;;;;;5019485;28;20129;-93
2023/07/09 03:23:24;;;;;;;30.50;12.75;;;16.10;99.90;;;;;;5019777;28;20021;-93
2023/07/09 03:25:50;;;;;;;21.90;11.32;;;16.10;99.90;;;;;;5019707;28;20022;-93
2023/07/09 03:28:16;;;;;;;27.88;12.57;;;16.10;99.90;;;;;;5019489;28;20045;-94
2023/07/09 03:30:42;;;;;;;26.58;13.23;;;16.10;99.90;;;;;;5019313;28;20037;-94
2023/07/09 03:33:09;;;;;;;29.10;13.15;;;16.10;99.90;;;;;;5019248;28;20108;-94
2023/07/09 03:35:36;;;;;;;22.05;11.50;;;16.00;99.90;;;;;;5019197;28;20025;-94
2023/07/09 03:38:02;;;;;;;25.75;11.65;;;16.00;99.90;;;;;;5019481;28;20029;-94
2023/07/09 03:40:27;;;;;;;23.13;11.20;;;16.00;99.90;;;;;;5020356;28;20483;-93
2023/07/09 03:42:53;;;;;;;23.10;11.63;;;16.00;99.90;;;;;;5019798;28;20112;-93
2023/07/09 03:45:19;;;;;;;26.45;11.10;;;16.00;99.90;;;;;;5019807;28;20022;-93
2023/07/09 03:47:47;;;;;;;23.33;11.70;;;16.00;99.90;;;;;;5020343;28;20018;-94
2023/07/09 03:50:13;;;;;;;26.55;11.82;;;16.00;99.90;;;;;;5033238;28;20037;-94
2023/07/09 03:52:39;;;;;;;31.42;12.75;;;16.00;99.90;;;;;;5020330;28;20555;-93
2023/07/09 03:55:05;;;;;;;30.40;13.13;;;16.00;99.90;;;;;;5021976;28;20425;-93
2023/07/09 03:57:31;;;;;;;27.13;12.77;;;15.90;99.90;;;;;;5020828;28;20079;-94
2023/07/09 03:59:57;;;;;;;30.02;12.88;;;16.00;99.90;;;;;;5019571;28;20028;-94
2023/07/09 04:02:23;;;;;;;28.70;12.43;;;16.00;99.90;;;;;;5019563;28;20026;-94
2023/07/09 04:04:48;;;;;;;30.88;13.52;;;16.00;99.90;;;;;;5021323;28;20092;-93
2023/07/09 04:07:15;;;;;;;20.58;10.25;;;16.00;99.90;;;;;;5028637;28;20089;-94
2023/07/09 04:09:41;;;;;;;28.08;12.55;;;16.00;99.90;;;;;;5029051;28;20026;-94
2023/07/09 04:12:08;;;;;;;27.08;13.25;;;15.90;99.90;;;;;;5025722;28;20036;-94
2023/07/09 04:14:34;;;;;;;27.45;12.50;;;15.90;99.90;;;;;;5023266;28;20049;-93
2023/07/09 04:16:59;;;;;;;28.95;13.52;;;15.90;99.90;;;;;;5021792;28;20028;-95
2023/07/09 04:19:26;;;;;;;31.27;12.25;;;15.80;99.90;;;;;;5021617;28;20017;-94
2023/07/09 04:21:51;;;;;;;28.92;12.30;;;15.80;99.90;;;;;;5022374;28;20025;-93
2023/07/09 04:24:19;;;;;;;25.88;11.57;;;15.80;99.90;;;;;;5023301;28;20557;-92
2023/07/09 04:26:45;;;;;;;27.58;11.15;;;15.80;99.90;;;;;;5023610;28;20086;-93
2023/07/09 04:29:11;;;;;;;20.23;9.90;;;15.80;99.90;;;;;;5020062;28;20025;-92
2023/07/09 04:31:37;;;;;;;24.33;9.90;;;15.80;99.90;;;;;;5019207;28;20097;-92
2023/07/09 04:34:04;;;;;;;20.10;10.02;;;15.80;99.90;;;;;;5018618;28;20022;-93
2023/07/09 04:36:30;;;;;;;20.98;8.73;;;15.80;99.90;;;;;;5018914;28;20574;-93
2023/07/09 04:38:55;;;;;;;27.65;8.50;;;15.70;99.90;;;;;;5018446;28;20113;-92
2023/07/09 04:41:21;;;;;;;25.00;8.95;;;15.70;99.90;;;;;;5018018;28;20116;-92
2023/07/09 04:43:46;;;;;;;22.50;8.57;;;15.70;99.90;;;;;;5018098;28;20044;-94
2023/07/09 04:46:12;;;;;;;20.83;8.38;;;15.70;99.90;;;;;;5017801;28;20089;-94
2023/07/09 04:48:38;;;;;;;27.38;8.80;;;15.70;99.90;;;;;;5017576;28;20018;-91
2023/07/09 04:51:04;;;;;;;33.22;10.05;;;15.60;99.90;;;;;;5017437;28;20099;-93
2023/07/09 04:53:30;;;;;;;22.40;8.38;;;15.70;99.90;;;;;;5009911;28;20464;-93
2023/07/09 04:55:58;;;;;;;26.25;8.95;;;15.70;99.90;;;;;;5017680;28;20040;-92
2023/07/09 04:58:23;;;;;;;32.00;10.55;;;15.60;99.90;;;;;;5017781;28;20041;-92
2023/07/09 05:00:50;;;;;;;28.83;9.32;;;15.70;99.90;;;;;;5018261;28;20085;-93
2023/07/09 05:03:17;;;;;;;24.77;9.82;;;15.60;99.90;;;;;;5017790;28;20076;-92
2023/07/09 05:05:45;;;;;;;20.80;9.80;;;15.70;99.90;;;;;;5018041;28;20025;-93
2023/07/09 05:08:11;;;;;;;25.48;10.05;;;15.70;99.90;;;;;;5018285;28;20375;-94
2023/07/09 05:10:44;;;;;;;25.33;9.60;;;15.70;99.90;;;;;;5019149;28;20034;-95
2023/07/09 05:13:10;;;;;;;26.05;8.63;;;15.70;99.90;;;;;;5020101;28;20021;-92
2023/07/09 05:15:40;;;;;;;30.92;9.75;;;15.70;99.90;;;;;;5015613;28;20041;-95
2023/07/09 05:18:09;;;;;;;26.20;9.15;;;15.70;99.90;;;;;;5031931;28;20022;-94
2023/07/09 05:20:35;;;;;;;24.83;8.40;;;15.70;99.90;;;;;;5018118;28;20029;-94
2023/07/09 05:23:01;;;;;;;29.15;8.43;;;15.70;99.90;;;;;;5018587;28;20112;-95
2023/07/09 05:25:27;;;;;;;25.90;8.85;;;15.70;99.90;;;;;;5018677;28;20455;-93
2023/07/09 05:27:52;;;;;;;20.92;8.27;;;15.70;99.90;;;;;;5018969;28;20028;-94
2023/07/09 05:30:19;;;;;;;23.27;8.32;;;15.70;99.90;;;;;;5023274;28;20052;-94
2023/07/09 05:32:45;;;;;;;22.73;8.30;;;15.70;99.90;;;;;;5025158;28;20037;-94
2023/07/09 05:35:11;;;;;;;22.25;8.25;;;15.70;99.90;;;;;;5021334;28;20025;-94
2023/07/09 05:37:37;;;;;;;26.80;8.57;;;15.70;99.90;;;;;;5013365;28;20026;-94
2023/07/09 05:40:07;;;;;;;33.30;9.18;;;15.80;99.90;;;;;;5019667;28;20104;-94
2023/07/09 05:42:33;;;;;;;27.25;9.45;;;15.80;99.90;;;;;;5020064;28;20028;-94
2023/07/09 05:44:59;;;;;;;19.85;8.70;;;15.80;99.90;;;;;;5019630;28;20393;-93
2023/07/09 05:47:26;;;;;;;25.02;8.13;;;15.80;99.90;;;;;;5021050;28;20029;-93
2023/07/09 05:49:52;;;;;;;23.80;8.05;;;15.80;99.90;;;;;;5022571;28;20013;-94
2023/07/09 05:52:19;;;;;;;20.48;7.60;;;15.80;99.90;;;;;;5032027;28;20036;-94
2023/07/09 05:54:45;;;;;;;26.10;8.07;;;15.80;99.90;;;;;;5024544;28;20064;-94
2023/07/09 05:57:11;;;;;;;23.75;8.57;;;15.90;99.90;;;;;;5019660;28;20045;-93
2023/07/09 05:59:40;;;;;;;21.52;8.88;;;15.90;99.90;;;;;;5022939;28;20386;-94
2023/07/09 06:02:18;;;;;;;20.10;8.60;;;15.90;99.90;;;;;;5030565;28;20029;-94
2023/07/09 06:04:51;;;;;;;26.45;8.77;;;15.90;99.90;;;;;;5035182;28;20049;-93
2023/07/09 06:07:20;;;;;;;27.83;8.73;;;15.90;99.90;;;;;;5031185;28;20024;-94
2023/07/09 06:09:48;;;;;;;24.55;8.50;;;16.00;99.90;;;;;;5029985;28;20017;-93
2023/07/09 06:12:14;;;;;;;28.95;9.25;;;15.90;99.90;;;;;;5022656;28;20021;-94
2023/07/09 06:14:40;;;;;;;28.17;8.57;;;15.90;99.90;;;;;;5023721;28;20022;-94
2023/07/09 06:17:09;;;;;;;32.30;8.15;;;15.90;99.90;;;;;;5022358;28;20029;-93
2023/07/09 06:19:35;;;;;;;31.15;8.93;;;15.90;99.90;;;;;;5019783;28;20156;-93
2023/07/09 06:22:01;;;;;;;21.55;8.98;;;16.00;99.90;;;;;;5019870;28;20033;-93
2023/07/09 06:24:27;;;;;;;30.20;9.30;;;16.00;99.90;;;;;;5020173;28;20025;-93
2023/07/09 06:26:53;;;;;;;21.50;8.88;;;16.00;99.90;;;;;;5018785;28;20160;-92
2023/07/09 06:29:18;;;;;;;32.42;10.27;;;16.00;99.90;;;;;;5018349;28;20029;-92
2023/07/09 06:31:44;;;;;;;26.50;9.82;;;16.00;99.90;;;;;;5017266;28;20039;-93
2023/07/09 06:34:10;;;;;;;25.92;10.65;;;16.10;99.90;;;;;;5019507;28;20018;-92
2023/07/09 06:36:36;;;;;;;33.35;9.95;;;16.10;99.90;;;;;;5021526;28;20075;-93
2023/07/09 06:39:02;;;;;;;28.00;9.90;;;16.20;99.90;;;;;;5023538;28;20025;-92
2023/07/09 06:41:28;;;;;;;33.95;9.38;;;16.20;99.90;;;;;;5018975;28;20022;-94
2023/07/09 06:43:54;;;;;;;23.40;9.02;;;16.30;99.90;;;;;;5016755;28;20545;-93
2023/07/09 06:46:20;;;;;;;24.83;8.73;;;16.40;99.90;;;;;;5016876;28;20040;-93
2023/07/09 06:48:47;;;;;;;30.75;9.30;;;16.40;99.90;;;;;;5017201;28;20025;-93
2023/07/09 06:51:13;;;;;;;21.65;8.75;;;16.50;99.90;;;;;;5019622;28;20044;-93
2023/07/09 06:53:39;;;;;;;22.50;9.02;;;16.60;99.90;;;;;;5018142;28;20029;-93
2023/07/09 06:56:08;;;;;;;31.25;8.90;;;16.60;99.90;;;;;;5014483;28;20034;-95
2023/07/09 06:58:36;;;;;;;20.45;8.25;;;16.70;99.90;;;;;;5020679;28;20025;-94
2023/07/09 07:01:03;;;;;;;21.60;9.02;;;16.70;99.90;;;;;;5019705;28;20117;-92
2023/07/09 07:03:30;;;;;;;21.65;8.93;;;16.70;99.90;;;;;;5031095;28;20045;-93
2023/07/09 07:05:57;;;;;;;22.95;8.38;;;16.80;99.90;;;;;;5024017;28;20029;-91
2023/07/09 07:08:25;;;;;;;25.67;9.95;;;16.90;99.90;;;;;;5025223;28;20018;-91
2023/07/09 07:11:01;;;;;;;27.05;8.43;;;16.90;99.90;;;;;;5029911;28;20038;-93
2023/07/09 07:13:31;;;;;;;20.08;7.55;;;17.00;99.90;;;;;;5014666;28;20018;-92
2023/07/09 07:15:57;;;;;;;18.40;7.20;;;17.10;99.90;;;;;;5023624;28;20108;-93
2023/07/09 07:18:23;;;;;;;23.10;8.15;;;17.20;99.90;;;;;;5013372;28;20494;-93
2023/07/09 07:20:49;;;;;;;21.55;7.30;;;17.30;99.90;;;;;;5009674;28;20371;-92
2023/07/09 07:23:15;;;;;;;20.38;6.85;;;17.40;99.90;;;;;;5007073;28;20021;-92
2023/07/09 07:25:41;;;;;;;23.83;7.82;;;17.50;99.90;;;;;;5007373;28;20018;-92
2023/07/09 07:28:09;;;;;;;22.30;7.57;;;17.60;99.90;;;;;;5004752;28;20109;-92
2023/07/09 07:30:34;;;;;;;15.75;6.40;;;17.60;99.90;;;;;;5009287;28;20028;-92
2023/07/09 07:33:00;;;;;;;21.73;6.18;;;17.70;99.90;;;;;;5005116;28;20029;-93
2023/07/09 07:35:25;;;;;;;15.32;5.90;;;17.70;99.90;;;;;;5007396;28;20026;-92
2023/07/09 07:37:51;;;;;;;16.13;5.55;;;17.70;99.90;;;;;;5009651;28;20022;-92
2023/07/09 07:40:17;;;;;;;18.83;7.07;;;17.70;99.90;;;;;;5012360;28;20029;-92
2023/07/09 07:42:42;;;;;;;17.50;6.38;;;17.70;99.90;;;;;;5015714;28;20029;-92
2023/07/09 07:45:16;;;;;;;24.67;6.40;;;17.70;99.90;;;;;;5000209;28;20446;-93
2023/07/09 07:47:43;;;;;;;20.25;5.72;;;17.60;99.90;;;;;;5017094;28;20022;-92
2023/07/09 07:50:10;;;;;;;16.27;5.47;;;17.70;99.90;;;;;;5024559;28;20056;-93
2023/07/09 07:52:37;;;;;;;20.00;6.53;;;17.60;99.90;;;;;;5012197;28;20022;-94
2023/07/09 07:55:05;;;;;;;12.50;5.15;;;17.60;99.90;;;;;;5013507;28;20029;-94
2023/07/09 07:57:30;;;;;;;20.40;5.55;;;17.60;99.90;;;;;;5014336;28;20026;-94
2023/07/09 07:59:56;;;;;;;20.95;5.47;;;17.60;99.90;;;;;;5027366;28;20022;-92
2023/07/09 08:02:23;;;;;;;18.83;5.50;;;17.60;99.90;;;;;;5015676;28;20021;-93
2023/07/09 08:04:50;;;;;;;16.33;6.40;;;17.60;99.90;;;;;;5012724;28;20518;-92
2023/07/09 08:07:18;;;;;;;22.50;5.70;;;17.60;99.90;;;;;;5012431;28;20104;-93
2023/07/09 08:09:44;;;;;;;19.70;5.78;;;17.60;99.90;;;;;;5014628;28;20037;-95
2023/07/09 08:12:11;;;;;;;17.58;6.55;;;17.70;99.90;;;;;;5012309;28;20034;-93
2023/07/09 08:14:39;;;;;;;20.73;6.28;;;17.70;99.90;;;;;;5011517;28;20096;-92
2023/07/09 08:17:05;;;;;;;15.65;5.40;;;17.70;99.90;;;;;;5010091;28;20080;-94
2023/07/09 08:19:31;;;;;;;19.13;5.75;;;17.70;99.90;;;;;;5006451;28;20026;-93
2023/07/09 08:21:57;;;;;;;21.75;5.97;;;17.70;99.90;;;;;;5010545;28;20025;-94
2023/07/09 08:24:23;;;;;;;12.98;6.15;;;17.70;99.90;;;;;;5010588;28;20021;-92
2023/07/09 08:26:49;;;;;;;16.17;5.10;;;17.60;99.90;;;;;;5010219;28;20026;-93
2023/07/09 08:29:14;;;;;;;19.27;6.32;;;17.60;99.90;;;;;;5014443;28;20030;-93
2023/07/09 08:31:41;;;;;;;16.98;4.80;;;17.60;99.90;;;;;;4993844;28;20376;-94
2023/07/09 08:34:07;;;;;;;15.93;5.20;;;17.60;99.90;;;;;;5010790;28;20024;-93
2023/07/09 08:36:34;;;;;;;16.80;6.32;;;17.60;99.90;;;;;;5009094;28;20050;-92
2023/07/09 08:39:03;;;;;;;15.85;4.60;;;17.60;99.90;;;;;;5010748;28;20021;-93
2023/07/09 08:42:23;;;;;;;17.45;5.75;;;17.60;99.90;;;;;;5011875;28;20029;-94
2023/07/09 08:45:02;;;;;;;20.17;7.53;;;17.70;99.90;;;;;;4995217;28;20057;-92
2023/07/09 08:47:47;;;;;;;19.80;6.18;;;17.70;99.90;;;;;;5018847;28;20037;-92
2023/07/09 08:50:22;;;;;;;13.85;6.90;;;17.70;99.90;;;;;;5010571;28;20030;-93
2023/07/09 08:52:53;;;;;;;21.58;6.70;;;17.60;99.90;;;;;;5008663;28;20047;-93
2023/07/09 08:55:21;;;;;;;18.02;5.80;;;17.70;99.90;;;;;;5028665;28;20025;-94
2023/07/09 08:58:00;;;;;;;18.65;5.90;;;17.70;99.90;;;;;;5001608;28;20079;-93
2023/07/09 09:00:54;;;;;;;21.25;6.35;;;17.70;99.90;;;;;;5011196;28;20025;-95
2023/07/09 09:03:29;;;;;;;18.17;6.05;;;17.70;99.90;;;;;;5016299;28;20044;-94
2023/07/09 09:05:55;;;;;;;16.92;6.30;;;17.70;99.90;;;;;;5020735;28;20033;-92
2023/07/09 09:08:46;;;;;;;16.13;5.75;;;17.70;99.90;;;;;;5026818;28;20010;-93
2023/07/09 09:11:39;;;;;;;17.42;5.90;;;17.80;99.90;;;;;;5016559;28;20041;-94
2023/07/09 09:14:17;;;;;;;12.77;5.38;;;17.80;99.90;;;;;;5004724;28;20033;-93
2023/07/09 09:16:45;;;;;;;14.15;4.28;;;17.80;99.90;;;;;;5001849;28;20041;-94
2023/07/09 09:19:26;;;;;;;15.55;4.95;;;17.90;99.90;;;;;;5003527;28;20013;-94
2023/07/09 09:21:56;;;;;;;;;;;17.90;99.90;;;;;;5025988;28;20018;-94
2023/07/09 09:24:31;;;;;;;12.40;4.07;;;17.90;99.90;;;;;;5012222;28;19905;-91
2023/07/09 09:26:58;;;;;;;12.88;4.35;;;18.00;99.90;;;;;;5013494;28;20049;-92
2023/07/09 09:29:25;;;;;;;10.10;2.90;;;18.00;99.90;;;;;;5015957;28;20544;-93
2023/07/09 09:31:57;;;;;;;10.65;2.60;;;18.00;99.90;;;;;;5023635;28;20041;-92
2023/07/09 09:34:29;;;;;;;13.02;3.17;;;18.10;99.90;;;;;;5016836;28;20018;-93
2023/07/09 09:36:56;;;;;;;13.30;2.60;;;18.10;99.90;;;;;;5016129;28;20032;-94
2023/07/09 09:39:27;;;;;;;12.98;3.17;;;18.10;99.90;;;;;;5017845;28;20032;-93
2023/07/09 09:42:01;;;;;;;11.02;2.30;;;18.10;99.90;;;;;;5015373;28;20032;-93
2023/07/09 09:44:30;;;;;;;10.07;2.42;;;18.20;99.90;;;;;;5020228;28;20032;-93
2023/07/09 09:46:59;;;;;;;13.65;2.38;;;18.20;99.90;;;;;;5015817;28;20112;-94
2023/07/09 09:49:24;;;;;;;8.85;2.03;;;18.20;99.90;;;;;;5014453;28;20030;-92
2023/07/09 09:51:50;;;;;;;8.35;2.10;;;18.30;99.90;;;;;;5006780;28;20034;-94
2023/07/09 09:54:20;;;;;;;8.93;2.38;;;18.30;99.90;;;;;;5024993;28;20018;-94
2023/07/09 09:56:50;;;;;;;12.48;2.35;;;18.30;99.90;;;;;;5028423;28;20053;-93
2023/07/09 09:59:25;;;;;;;14.77;2.55;;;18.40;99.90;;;;;;5034122;28;20009;-93
2023/07/09 10:01:59;;;;;;;13.85;1.83;;;18.50;99.90;;;;;;5031253;28;20036;-93
2023/07/09 10:04:28;;;;;;;10.82;2.17;;;18.60;99.90;;;;;;5026400;28;20049;-93
2023/07/09 10:07:00;;;;;;;6.88;1.65;;;18.60;99.90;;;;;;5027855;28;20021;-93
2023/07/09 10:09:50;;;;;;;8.18;1.65;;;18.70;99.90;;;;;;5024824;28;20104;-92
2023/07/09 10:12:34;;;;;;;14.50;1.70;;;18.80;99.90;;;;;;5021880;28;20100;-92
2023/07/09 10:15:38;;;;;;;13.50;2.15;;;18.90;99.90;;;;;;5017830;28;20104;-95
2023/07/09 10:18:10;;;;;;;8.65;1.98;;;19.20;99.90;;;;;;5033445;28;20018;-94
2023/07/09 10:20:45;;;;;;;7.32;2.28;;;19.50;99.90;;;;;;5018919;28;20041;-94
2023/07/09 10:23:16;;;;;;;4.78;1.65;;;19.80;99.90;;;;;;5018618;28;20038;-93
2023/07/09 10:25:54;;;;;;;9.50;1.95;;;20.10;99.90;;;;;;5019958;28;20033;-92
2023/07/09 10:28:32;;;;;;;8.43;2.05;;;20.40;99.90;;;;;;5007111;28;20116;-91
2023/07/09 10:31:11;;;;;;;11.55;1.83;;;20.70;99.90;;;;;;5016021;28;20049;-92
2023/07/09 10:34:00;;;;;;;7.20;1.38;;;20.90;99.90;;;;;;5018845;28;20084;-92
2023/07/09 10:36:53;;;;;;;11.50;2.55;;;21.20;99.90;;;;;;5017208;28;20112;-93
2023/07/09 10:39:33;;;;;;;11.80;1.77;;;21.40;98.80;;;;;;5033398;28;20034;-93
2023/07/09 10:41:59;;;;;;;;;;;21.70;97.50;;;;;;5020069;28;20040;-91
2023/07/09 10:44:36;;;;;;;10.85;1.90;;;21.70;96.20;;;;;;5018577;28;19906;-94
2023/07/09 10:47:17;;;;;;;9.45;1.90;;;21.80;94.90;;;;;;5018518;28;20104;-94
2023/07/09 10:49:44;;;;;;;10.13;2.33;;;21.90;94.10;;;;;;5026458;28;20020;-92
2023/07/09 10:52:49;;;;;;;7.43;1.73;;;22.10;93.50;;;;;;5030517;28;20101;-92
2023/07/09 10:55:47;;;;;;;5.93;1.67;;;22.20;93.20;;;;;;4967232;28;20027;-93
2023/07/09 10:58:33;;;;;;;9.65;1.88;;;22.40;90.60;;;;;;4970872;29;20023;-95
2023/07/09 11:00:59;;;;;;;5.85;1.30;;;22.50;90.10;;;;;;4958033;29;20035;-94
2023/07/09 11:03:28;;;;;;;10.23;1.52;;;22.60;88.70;;;;;;4976162;28;20102;-93
2023/07/09 11:05:53;;;;;;;9.25;1.60;;;22.80;88.40;;;;;;4952863;29;20046;-95
2023/07/09 11:08:37;;;;;;;8.98;2.03;;;22.90;88.40;;;;;;4963667;29;20031;-93
2023/07/09 11:11:13;;;;;;;10.35;1.80;;;23.00;86.10;;;;;;4955634;29;20067;-96
2023/07/09 11:13:50;;;;;;;12.75;3.38;;;22.90;84.20;;;;;;4964473;29;20077;-96
2023/07/09 11:16:29;;;;;;;8.85;1.70;;;23.00;83.80;;;;;;4949703;29;20035;-95
2023/07/09 11:18:59;;;;;;;5.38;1.70;;;23.00;81.20;;;;;;4953114;29;20099;-94
2023/07/09 11:21:25;;;;;;;8.38;2.10;;;23.00;80.80;;;;;;4955380;29;20050;-95
2023/07/09 11:24:00;;;;;;;7.32;1.85;;;23.10;80.60;;;;;;4940583;29;20130;-93
2023/07/09 11:26:36;;;;;;;10.80;2.25;;;23.10;80.50;;;;;;5005561;28;20042;-93
2023/07/09 11:29:05;;;;;;;7.88;1.85;;;23.30;80.40;;;;;;5019573;28;20037;-95
2023/07/09 11:31:39;;;;;;;8.13;1.92;;;23.50;79.20;;;;;;5045127;28;20105;-95
2023/07/09 11:34:14;;;;;;;20.80;2.95;;;23.60;78.40;;;;;;5034078;28;20009;-93
2023/07/09 11:36:58;;;;;;;9.02;1.42;;;23.70;78.40;;;;;;5035334;28;20021;-93
2023/07/09 11:39:40;;;;;;;12.75;1.80;;;23.90;78.30;;;;;;5050227;28;20040;-95
2023/07/09 11:42:26;;;;;;;5.18;1.10;;;24.10;77.20;;;;;;5051036;28;20077;-92
2023/07/09 11:45:30;;;;;;;6.75;1.60;;;24.20;75.40;;;;;;5037342;28;20018;-93
2023/07/09 11:48:20;;;;;;;9.55;1.52;;;24.10;73.40;;;;;;5055216;28;20029;-92
2023/07/09 11:50:49;;;;;;;8.68;1.73;;;24.10;73.30;;;;;;5039039;28;20061;-92
2023/07/09 11:53:34;;;;;;;8.25;1.80;;;24.20;73.30;;;;;;5042162;28;20040;-95
2023/07/09 11:56:00;;;;;;;9.68;1.70;;;24.40;74.20;;;;;;5041201;28;20014;-95
2023/07/09 11:58:26;;;;;;;8.90;1.73;;;24.60;74.00;;;;;;5042496;28;20033;-90
2023/07/09 12:00:57;;;;;;;5.32;1.50;;;24.60;73.20;;;;;;5050107;28;20045;-92
2023/07/09 12:03:36;;;;;;;6.95;1.60;;;24.40;72.10;;;;;;5026996;28;20071;-94
2023/07/09 12:06:05;;;;;;;8.30;1.52;;;24.30;71.60;;;;;;5029555;28;20124;-93
2023/07/09 12:08:40;;;;;;;12.55;2.20;;;24.00;72.30;;;;;;5026293;28;20036;-95
2023/07/09 12:11:17;;;;;;;5.53;1.50;;;24.20;73.10;;;;;;5012739;28;20037;-95
2023/07/09 12:13:44;;;;;;;8.45;1.50;;;24.30;73.10;;;;;;5017325;28;20044;-92
2023/07/09 12:16:38;;;;;;;8.60;1.50;;;24.40;72.80;;;;;;5017951;28;20028;-95
2023/07/09 12:19:07;;;;;;;11.05;1.80;;;24.50;72.60;;;;;;5003320;28;20039;-93
2023/07/09 12:21:38;;;;;;;11.27;2.03;;;24.70;71.40;;;;;;5021135;28;20083;-94
2023/07/09 12:24:24;;;;;;;6.72;1.58;;;24.80;71.50;;;;;;5024987;28;20467;-94
2023/07/09 12:26:55;;;;;;;6.57;1.85;;;24.90;70.80;;;;;;5018433;28;20108;-94
2023/07/09 12:29:28;;;;;;;4.50;1.63;;;25.00;70.00;;;;;;5018892;28;20033;-94
2023/07/09 12:32:02;;;;;;;6.82;1.40;;;25.20;70.20;;;;;;5019440;28;20030;-93
2023/07/09 12:34:31;;;;;;;5.93;2.00;;;25.30;68.20;;;;;;5018574;28;20060;-93
2023/07/09 12:36:57;;;;;;;8.63;1.73;;;25.50;67.90;;;;;;5020474;28;20030;-93
2023/07/09 12:39:27;;;;;;;5.72;1.20;;;25.40;67.80;;;;;;5023143;28;20539;-93
2023/07/09 12:41:59;;;;;;;9.67;1.47;;;25.50;67.90;;;;;;5022781;28;20029;-94
2023/07/09 12:44:34;;;;;;;5.53;1.30;;;25.70;67.80;;;;;;5016044;28;20759;-94
2023/07/09 12:47:00;;;;;;;5.65;1.48;;;25.90;67.40;;;;;;5019845;28;20029;-92
2023/07/09 12:49:36;;;;;;;4.20;1.27;;;26.00;65.60;;;;;;5018683;28;20104;-93
2023/07/09 12:52:09;;;;;;;8.05;1.83;;;26.00;64.20;;;;;;5025198;28;20039;-92
2023/07/09 12:54:35;;;;;;;7.72;1.48;;;25.90;64.10;;;;;;5024016;28;20032;-94